Time;durP1;ratioP1;P1;durP2;ratioP2;P2;SDS_P1;SDS_P2;PMS_P1;PMS_P2;Temp;Humidity;BMP_temperature;BMP_pressure;BME280_temperature;BME280_humidity;BME280_pressure;Samples;Min_cycle;Max_cycle;Signal;HPM_P1;HPM_P2
2021/07/12 00:01:09;;;;;;;;;;;18.80;99.90;;;;;;5083098;28;20370;-67
2021/07/12 00:03:36;;;;;;;;;;;18.80;99.90;;;;;;5083133;28;21479;-67
2021/07/12 00:06:02;;;;;;;;;;;18.80;99.90;;;;;;5086495;28;20425;-67
2021/07/12 00:08:29;;;;;;;;;;;18.80;99.90;;;;;;5083733;28;19966;-67
2021/07/12 00:10:56;;;;;;;;;;;18.80;99.90;;;;;;5087923;28;19927;-67
2021/07/12 00:13:22;;;;;;;;;;;18.80;99.90;;;;;;5080267;28;19963;-67
2021/07/12 00:15:49;;;;;;;;;;;18.70;99.90;;;;;;5096893;28;19919;-67
2021/07/12 00:18:16;;;;;;;;;;;18.70;99.90;;;;;;5078303;28;19920;-67
2021/07/12 00:20:43;;;;;;;;;;;18.60;99.90;;;;;;5079613;28;19924;-67
2021/07/12 00:23:09;;;;;;;;;;;18.60;99.90;;;;;;5086402;28;20001;-67
2021/07/12 00:25:36;;;;;;;;;;;18.60;99.90;;;;;;5092515;28;19923;-67
2021/07/12 00:28:03;;;;;;;;;;;18.50;99.90;;;;;;5079919;28;19955;-67
2021/07/12 00:30:30;;;;;;;;;;;18.50;99.90;;;;;;5103526;28;19985;-67
2021/07/12 00:32:56;;;;;;;;;;;18.50;99.90;;;;;;5078409;28;20433;-67
2021/07/12 00:35:24;;;;;;;;;;;18.50;99.90;;;;;;5089097;28;19930;-67
2021/07/12 00:37:50;;;;;;;;;;;18.50;99.90;;;;;;5087634;28;19920;-67
2021/07/12 00:40:18;;;;;;;;;;;18.50;99.90;;;;;;5093159;28;20387;-67
2021/07/12 00:42:46;;;;;;;;;;;18.50;99.90;;;;;;5079794;28;20015;-67
2021/07/12 00:45:17;;;;;;;;;;;18.50;99.90;;;;;;5074892;28;19920;-67
2021/07/12 00:47:43;;;;;;;;;;;18.50;99.90;;;;;;5089818;28;19931;-67
2021/07/12 00:50:10;;;;;;;;;;;18.50;99.90;;;;;;5074995;28;19920;-67
2021/07/12 00:52:37;;;;;;;;;;;18.50;99.90;;;;;;5095645;28;19924;-67
2021/07/12 00:55:08;;;;;;;;;;;18.50;99.90;;;;;;5087927;28;19978;-66
2021/07/12 00:57:34;;;;;;;;;;;18.50;99.90;;;;;;5080270;28;19967;-67
2021/07/12 01:00:02;;;;;;;;;;;18.50;99.90;;;;;;5073512;28;20308;-67
2021/07/12 01:02:29;;;;;;;;;;;18.50;99.90;;;;;;5083698;28;19986;-67
2021/07/12 01:04:56;;;;;;;;;;;18.50;99.90;;;;;;5096733;28;19982;-67
2021/07/12 01:07:23;;;;;;;;;;;18.40;99.90;;;;;;5092837;28;19979;-67
2021/07/12 01:09:49;;;;;;;;;;;18.40;99.90;;;;;;5091649;28;19920;-67
2021/07/12 01:12:28;;;;;;;;;;;18.40;99.90;;;;;;5080556;28;19963;-67
2021/07/12 01:14:58;;;;;;;;;;;18.40;99.90;;;;;;5085567;28;19971;-67
2021/07/12 01:17:28;;;;;;;;;;;18.30;99.90;;;;;;5089893;28;19927;-67
2021/07/12 01:20:06;;;;;;;;;;;18.40;99.90;;;;;;5082602;28;20410;-67
2021/07/12 01:23:02;;;;;;;;;;;18.30;99.90;;;;;;5084823;28;20006;-67
2021/07/12 01:25:56;;;;;;;;;;;18.30;99.90;;;;;;5079408;28;19920;-67
2021/07/12 01:28:46;;;;;;;;;;;18.30;99.90;;;;;;5049169;28;20028;-67
2021/07/12 01:31:28;;;;;;;;;;;18.30;99.90;;;;;;5092154;28;19964;-67
2021/07/12 01:34:00;;;;;;;;;;;18.30;99.90;;;;;;5087141;28;19920;-67
2021/07/12 01:36:33;;;;;;;;;;;18.30;99.90;;;;;;5091856;28;20053;-67
2021/07/12 01:39:02;;;;;;;;;;;18.30;99.90;;;;;;5087299;28;19928;-67
2021/07/12 01:41:32;;;;;;;;;;;18.30;99.90;;;;;;5084466;28;19924;-67
2021/07/12 01:44:10;;;;;;;;;;;18.30;99.90;;;;;;5088763;28;20369;-67
2021/07/12 01:46:48;;;;;;;;;;;18.40;99.90;;;;;;5091983;28;20054;-67
2021/07/12 01:49:22;;;;;;;;;;;18.40;99.90;;;;;;5084486;28;19972;-67
2021/07/12 01:51:54;;;;;;;;;;;18.40;99.90;;;;;;5069531;28;19975;-67
2021/07/12 01:54:30;;;;;;;;;;;18.40;99.90;;;;;;5092286;28;20372;-67
2021/07/12 01:57:00;;;;;;;;;;;18.40;99.90;;;;;;5079210;28;19924;-67
2021/07/12 01:59:36;;;;;;;;;;;18.40;99.90;;;;;;5087813;28;19923;-67
2021/07/12 02:02:04;;;;;;;;;;;18.40;99.90;;;;;;5074207;28;20023;-67
2021/07/12 02:04:31;;;;;;;;;;;18.30;99.90;;;;;;5079753;28;20184;-67
2021/07/12 02:06:58;;;;;;;;;;;18.30;99.90;;;;;;5086305;28;20363;-67
2021/07/12 02:09:25;;;;;;;;;;;18.30;99.90;;;;;;5095064;28;19928;-67
2021/07/12 02:11:53;;;;;;;;;;;18.20;99.90;;;;;;5082606;28;20310;-67
2021/07/12 02:14:21;;;;;;;;;;;18.20;99.90;;;;;;5089041;28;20008;-67
2021/07/12 02:16:49;;;;;;;;;;;18.20;99.90;;;;;;5082091;28;19970;-67
2021/07/12 02:19:17;;;;;;;;;;;18.10;99.90;;;;;;5094724;28;19978;-67
2021/07/12 02:21:45;;;;;;;;;;;18.10;99.90;;;;;;5064831;28;19920;-67
2021/07/12 02:24:12;;;;;;;;;;;18.10;99.90;;;;;;5062680;28;21132;-67
2021/07/12 02:26:39;;;;;;;;;;;18.10;99.90;;;;;;5074234;28;20025;-67
2021/07/12 02:29:07;;;;;;;;;;;18.10;99.90;;;;;;5085490;28;20001;-67
2021/07/12 02:31:34;;;;;;;;;;;18.10;99.90;;;;;;5090799;28;19971;-67
2021/07/12 02:34:02;;;;;;;;;;;18.00;99.90;;;;;;5088455;28;19948;-67
2021/07/12 02:36:29;;;;;;;;;;;18.00;99.90;;;;;;5085674;28;19967;-67
2021/07/12 02:38:56;;;;;;;;;;;18.00;99.90;;;;;;5096954;28;20050;-67
2021/07/12 02:41:24;;;;;;;;;;;17.90;99.90;;;;;;5092408;28;20055;-67
2021/07/12 02:43:52;;;;;;;;;;;17.90;99.90;;;;;;5086459;28;19931;-67
2021/07/12 02:46:19;;;;;;;;;;;17.90;99.90;;;;;;5091138;28;19963;-67
2021/07/12 02:48:46;;;;;;;;;;;17.80;99.90;;;;;;5087910;28;20356;-67
2021/07/12 02:51:14;;;;;;;;;;;17.80;99.90;;;;;;5091642;28;19967;-67
2021/07/12 02:53:53;;;;;;;;;;;17.80;99.90;;;;;;5098635;28;20337;-67
2021/07/12 02:56:20;;;;;;;;;;;17.80;99.90;;;;;;5092064;28;20017;-67
2021/07/12 02:58:46;;;;;;;;;;;17.70;99.90;;;;;;5100278;28;19951;-67
2021/07/12 03:01:13;;;;;;;;;;;17.70;99.90;;;;;;5083615;28;19919;-67
2021/07/12 03:03:39;;;;;;;;;;;17.70;99.90;;;;;;5085649;28;19931;-67
2021/07/12 03:06:14;;;;;;;;;;;17.70;99.90;;;;;;5079545;28;20031;-67
2021/07/12 03:09:07;;;;;;;;;;;17.70;99.90;;;;;;5079854;28;20283;-67
2021/07/12 03:11:36;;;;;;;;;;;17.70;99.90;;;;;;5075562;28;19975;-67
2021/07/12 03:14:22;;;;;;;;;;;17.60;99.90;;;;;;5087204;28;20002;-67
2021/07/12 03:16:49;;;;;;;;;;;17.60;99.90;;;;;;5086082;28;20019;-67
2021/07/12 03:19:19;;;;;;;;;;;17.60;99.90;;;;;;5082500;28;20355;-67
2021/07/12 03:21:46;;;;;;;;;;;17.60;99.90;;;;;;5078575;28;19962;-67
2021/07/12 03:24:13;;;;;;;;;;;17.50;99.90;;;;;;5068390;28;19947;-67
2021/07/12 03:26:41;;;;;;;;;;;17.50;99.90;;;;;;5072690;28;20057;-67
2021/07/12 03:29:08;;;;;;;;;;;17.50;99.90;;;;;;5097895;28;20326;-67
2021/07/12 03:31:35;;;;;;;;;;;17.50;99.90;;;;;;5089862;28;20058;-67
2021/07/12 03:34:03;;;;;;;;;;;17.50;99.90;;;;;;5067361;28;20735;-67
2021/07/12 03:36:30;;;;;;;;;;;17.50;99.90;;;;;;5079948;28;20021;-67
2021/07/12 03:38:56;;;;;;;;;;;17.50;99.90;;;;;;5084148;28;19955;-67
2021/07/12 03:41:23;;;;;;;;;;;17.50;99.90;;;;;;5072677;28;19973;-67
2021/07/12 03:43:50;;;;;;;;;;;17.50;99.90;;;;;;5090766;28;20341;-67
2021/07/12 03:46:17;;;;;;;;;;;17.50;99.90;;;;;;5095316;28;19920;-67
2021/07/12 03:48:45;;;;;;;;;;;17.40;99.90;;;;;;5093748;28;19931;-67
2021/07/12 03:51:17;;;;;;;;;;;17.40;99.90;;;;;;5092878;28;19966;-67
2021/07/12 03:53:44;;;;;;;;;;;17.40;99.90;;;;;;5093771;28;19970;-67
2021/07/12 03:56:11;;;;;;;;;;;17.40;99.90;;;;;;5090797;28;19924;-67
2021/07/12 03:58:37;;;;;;;;;;;17.40;99.90;;;;;;5088556;28;20624;-67
2021/07/12 04:01:04;;;;;;;;;;;17.50;99.90;;;;;;5096800;28;19963;-67
2021/07/12 04:03:31;;;;;;;;;;;17.50;99.90;;;;;;5088874;28;20321;-67
2021/07/12 04:05:58;;;;;;;;;;;17.40;99.90;;;;;;5095101;28;19969;-67
2021/07/12 04:08:25;;;;;;;;;;;17.50;99.90;;;;;;5088588;28;20134;-67
2021/07/12 04:10:52;;;;;;;;;;;17.50;99.90;;;;;;5099949;28;19923;-67
2021/07/12 04:13:18;;;;;;;;;;;17.50;99.90;;;;;;5088606;28;20336;-67
2021/07/12 04:15:45;;;;;;;;;;;17.50;99.90;;;;;;5105832;28;19920;-67
2021/07/12 04:18:12;;;;;;;;;;;17.50;99.90;;;;;;5085146;28;20540;-68
2021/07/12 04:20:41;;;;;;;;;;;17.60;99.90;;;;;;5082295;28;19981;-67
2021/07/12 04:23:09;;;;;;;;;;;17.60;99.90;;;;;;5090109;28;20372;-67
2021/07/12 04:25:35;;;;;;;;;;;17.60;99.90;;;;;;5106223;28;19970;-67
2021/07/12 04:28:02;;;;;;;;;;;17.60;99.90;;;;;;5081568;28;19920;-67
2021/07/12 04:30:29;;;;;;;;;;;17.70;99.90;;;;;;5097523;28;20065;-67
2021/07/12 04:32:55;;;;;;;;;;;17.70;99.90;;;;;;5087129;28;20006;-67
2021/07/12 04:35:22;;;;;;;;;;;17.70;99.90;;;;;;5101268;28;19958;-67
2021/07/12 04:37:49;;;;;;;;;;;17.70;99.90;;;;;;5103207;28;21648;-67
2021/07/12 04:40:16;;;;;;;;;;;17.70;99.90;;;;;;5091977;28;19975;-67
2021/07/12 04:42:42;;;;;;;;;;;17.80;99.90;;;;;;5100781;28;19973;-67
2021/07/12 04:45:10;;;;;;;;;;;17.80;99.90;;;;;;5075442;28;19958;-67
2021/07/12 04:47:36;;;;;;;;;;;17.80;99.90;;;;;;5098584;28;19947;-67
2021/07/12 04:50:04;;;;;;;;;;;17.80;99.90;;;;;;5088899;28;19926;-67
2021/07/12 04:52:31;;;;;;;;;;;17.90;99.90;;;;;;5072201;28;20363;-67
2021/07/12 04:54:58;;;;;;;;;;;17.90;99.90;;;;;;5076321;28;20369;-67
2021/07/12 04:57:25;;;;;;;;;;;17.90;99.90;;;;;;5064754;28;19963;-67
2021/07/12 04:59:52;;;;;;;;;;;18.00;99.90;;;;;;5103847;28;20000;-67
2021/07/12 05:02:19;;;;;;;;;;;18.00;99.90;;;;;;5079622;28;20463;-67
2021/07/12 05:04:45;;;;;;;;;;;18.00;99.90;;;;;;5097939;28;20068;-67
2021/07/12 05:07:13;;;;;;;;;;;18.00;99.90;;;;;;5082136;28;19960;-67
2021/07/12 05:09:40;;;;;;;;;;;18.10;99.90;;;;;;5099015;28;19973;-67
2021/07/12 05:12:09;;;;;;;;;;;18.10;99.90;;;;;;5094235;28;19942;-67
2021/07/12 05:14:37;;;;;;;;;;;18.10;99.90;;;;;;5086396;28;19920;-67
2021/07/12 05:17:05;;;;;;;;;;;18.20;99.90;;;;;;5062217;28;19920;-67
2021/07/12 05:19:32;;;;;;;;;;;18.20;99.90;;;;;;5084721;28;19992;-67
2021/07/12 05:21:59;;;;;;;;;;;18.30;99.90;;;;;;5096044;28;20397;-67
2021/07/12 05:24:25;;;;;;;;;;;18.30;99.90;;;;;;5095578;28;19924;-67
2021/07/12 05:26:52;;;;;;;;;;;18.40;99.90;;;;;;5089502;28;19988;-67
2021/07/12 05:29:19;;;;;;;;;;;18.40;99.90;;;;;;5084944;28;20426;-67
2021/07/12 05:31:46;;;;;;;;;;;18.50;99.90;;;;;;5095454;28;19978;-67
2021/07/12 05:34:14;;;;;;;;;;;18.50;99.90;;;;;;5069829;28;19920;-67
2021/07/12 05:36:41;;;;;;;;;;;18.50;99.90;;;;;;5089434;28;20498;-67
2021/07/12 05:39:08;;;;;;;;;;;18.60;99.90;;;;;;5085773;28;19919;-68
2021/07/12 05:41:35;;;;;;;;;;;18.60;99.90;;;;;;5073424;28;19955;-67
2021/07/12 05:44:01;;;;;;;;;;;18.70;99.90;;;;;;5098558;28;19995;-67
2021/07/12 05:46:28;;;;;;;;;;;18.80;99.90;;;;;;5099861;28;19947;-67
2021/07/12 05:48:55;;;;;;;;;;;18.80;99.90;;;;;;5099931;28;19919;-67
2021/07/12 05:51:21;;;;;;;;;;;18.90;99.90;;;;;;5092357;28;20042;-68
2021/07/12 05:53:48;;;;;;;;;;;19.00;99.90;;;;;;5096819;28;19926;-67
2021/07/12 05:56:15;;;;;;;;;;;19.00;99.90;;;;;;5085312;28;19919;-67
2021/07/12 05:58:42;;;;;;;;;;;19.20;99.90;;;;;;5086523;28;19943;-67
2021/07/12 06:01:08;;;;;;;;;;;19.20;99.90;;;;;;5079971;28;20370;-67
2021/07/12 06:03:35;;;;;;;;;;;19.30;99.90;;;;;;5092386;28;19963;-68
2021/07/12 06:06:02;;;;;;;;;;;19.40;99.90;;;;;;5094053;28;19958;-67
2021/07/12 06:08:28;;;;;;;;;;;19.40;99.90;;;;;;5083413;28;19973;-67
2021/07/12 06:10:55;;;;;;;;;;;19.50;99.90;;;;;;5083704;28;19951;-67
2021/07/12 06:13:22;;;;;;;;;;;19.50;99.90;;;;;;5094676;28;19959;-67
2021/07/12 06:15:49;;;;;;;;;;;19.50;99.90;;;;;;5101591;28;20010;-67
2021/07/12 06:18:16;;;;;;;;;;;19.50;99.90;;;;;;5069833;28;19960;-67
2021/07/12 06:20:43;;;;;;;;;;;19.50;99.90;;;;;;5090773;28;20024;-67
2021/07/12 06:23:10;;;;;;;;;;;19.50;99.90;;;;;;5063239;28;19920;-67
2021/07/12 06:25:37;;;;;;;;;;;19.50;99.90;;;;;;5079855;28;20379;-67
2021/07/12 06:28:04;;;;;;;;;;;19.50;99.90;;;;;;5080996;28;20285;-67
2021/07/12 06:30:34;;;;;;;;;;;19.50;99.90;;;;;;5088768;28;19955;-67
2021/07/12 06:33:01;;;;;;;;;;;19.60;99.90;;;;;;5096731;28;20313;-67
2021/07/12 06:35:28;;;;;;;;;;;19.60;99.90;;;;;;5101194;28;19951;-67
2021/07/12 06:37:54;;;;;;;;;;;19.70;99.90;;;;;;5100258;28;20397;-68
2021/07/12 06:40:22;;;;;;;;;;;19.70;99.90;;;;;;5102180;28;19930;-67
2021/07/12 06:42:49;;;;;;;;;;;19.80;99.90;;;;;;5097348;28;19919;-67
2021/07/12 06:45:16;;;;;;;;;;;19.80;99.90;;;;;;5090041;28;19920;-67
2021/07/12 06:47:42;;;;;;;;;;;19.90;99.90;;;;;;5101614;28;19966;-67
2021/07/12 06:50:09;;;;;;;;;;;20.00;99.90;;;;;;5066803;28;19967;-67
2021/07/12 06:52:39;;;;;;;;;;;20.10;99.90;;;;;;5087574;28;20319;-67
2021/07/12 06:55:06;;;;;;;;;;;20.20;99.90;;;;;;5091622;28;19988;-67
2021/07/12 06:57:33;;;;;;;;;;;20.30;99.90;;;;;;5083158;28;19963;-67
2021/07/12 06:59:59;;;;;;;;;;;20.40;99.90;;;;;;5103476;28;19973;-67
2021/07/12 07:02:26;;;;;;;;;;;20.40;99.90;;;;;;5078023;28;19967;-67
2021/07/12 07:04:53;;;;;;;;;;;20.60;99.90;;;;;;5101832;28;19942;-68
2021/07/12 07:07:20;;;;;;;;;;;20.70;99.90;;;;;;5087447;28;19951;-67
2021/07/12 07:09:46;;;;;;;;;;;20.70;99.90;;;;;;5102756;28;20686;-67
2021/07/12 07:12:13;;;;;;;;;;;20.80;99.90;;;;;;5089837;28;19920;-67
2021/07/12 07:14:40;;;;;;;;;;;20.90;99.90;;;;;;5097001;28;19956;-67
2021/07/12 07:17:06;;;;;;;;;;;20.90;99.90;;;;;;5088979;28;19963;-68
2021/07/12 07:19:33;;;;;;;;;;;21.00;99.90;;;;;;5092943;28;19927;-68
2021/07/12 07:22:00;;;;;;;;;;;21.10;99.90;;;;;;5086896;28;19919;-67
2021/07/12 07:24:26;;;;;;;;;;;21.10;99.90;;;;;;5091214;28;20388;-68
2021/07/12 07:26:53;;;;;;;;;;;21.20;99.90;;;;;;5070071;28;20011;-67
2021/07/12 07:29:21;;;;;;;;;;;21.30;99.90;;;;;;5073310;28;20134;-68
2021/07/12 07:31:49;;;;;;;;;;;21.40;99.90;;;;;;5071576;28;20283;-68
2021/07/12 07:34:33;;;;;;;;;;;21.40;99.90;;;;;;5071316;28;19993;-67
2021/07/12 07:36:59;;;;;;;;;;;21.50;99.90;;;;;;5068693;28;19928;-67
2021/07/12 07:39:26;;;;;;;;;;;21.60;99.90;;;;;;5068738;28;19956;-67
2021/07/12 07:42:06;;;;;;;;;;;21.70;99.90;;;;;;5070595;28;20264;-68
2021/07/12 07:44:33;;;;;;;;;;;21.70;99.90;;;;;;5073150;28;19998;-68
2021/07/12 07:47:00;;;;;;;;;;;21.70;99.90;;;;;;5069309;28;20007;-67
2021/07/12 07:49:28;;;;;;;;;;;21.80;99.90;;;;;;5071094;28;19920;-67
2021/07/12 07:51:55;;;;;;;;;;;21.80;99.90;;;;;;5053519;28;19920;-68
2021/07/12 07:54:21;;;;;;;;;;;21.90;99.90;;;;;;5070054;28;19978;-68
2021/07/12 07:56:48;;;;;;;;;;;21.90;99.90;;;;;;5067875;28;20564;-67
2021/07/12 07:59:15;;;;;;;;;;;22.00;99.90;;;;;;5071940;28;19963;-68
2021/07/12 08:01:41;;;;;;;;;;;22.00;99.90;;;;;;5051443;28;20270;-67
2021/07/12 08:04:08;;;;;;;;;;;22.00;99.90;;;;;;5069432;28;19943;-67
2021/07/12 08:06:35;;;;;;;;;;;22.10;99.90;;;;;;5071998;28;19924;-68
2021/07/12 08:09:04;;;;;;;;;;;22.10;99.90;;;;;;5070148;28;19961;-67
2021/07/12 08:11:31;;;;;;;;;;;22.10;99.90;;;;;;5071997;28;19985;-68
2021/07/12 08:13:58;;;;;;;;;;;22.10;99.90;;;;;;5071370;28;20037;-68
2021/07/12 08:16:25;;;;;;;;;;;22.20;99.90;;;;;;5069830;28;19982;-68
2021/07/12 08:18:51;;;;;;;;;;;22.20;99.90;;;;;;5066151;28;20334;-68
2021/07/12 08:21:18;;;;;;;;;;;22.20;99.90;;;;;;5071149;28;20049;-68
2021/07/12 08:23:45;;;;;;;;;;;22.20;99.90;;;;;;5073205;28;20034;-67
2021/07/12 08:26:12;;;;;;;;;;;22.30;99.90;;;;;;5067878;28;20015;-68
2021/07/12 08:28:39;;;;;;;;;;;22.40;99.90;;;;;;5066866;28;19971;-67
2021/07/12 08:31:06;;;;;;;;;;;22.40;99.90;;;;;;5068951;28;20387;-67
2021/07/12 08:33:33;;;;;;;;;;;22.50;99.90;;;;;;5070378;28;20379;-67
2021/07/12 08:35:59;;;;;;;;;;;22.50;99.90;;;;;;5065313;28;20039;-68
2021/07/12 08:38:26;;;;;;;;;;;22.60;99.90;;;;;;5069587;28;19971;-69
2021/07/12 08:40:54;;;;;;;;;;;22.60;99.90;;;;;;5070856;28;19930;-67
2021/07/12 08:43:21;;;;;;;;;;;22.70;99.90;;;;;;5069725;28;19967;-67
2021/07/12 08:45:48;;;;;;;;;;;22.70;99.90;;;;;;5069249;28;19952;-68
2021/07/12 08:48:15;;;;;;;;;;;22.70;99.90;;;;;;5067628;28;20375;-68
2021/07/12 08:50:42;;;;;;;;;;;22.80;99.90;;;;;;5068896;28;20004;-67
2021/07/12 08:53:10;;;;;;;;;;;22.80;99.90;;;;;;5070037;28;20031;-68
2021/07/12 08:55:37;;;;;;;;;;;22.80;99.90;;;;;;5067638;28;19920;-67
2021/07/12 08:58:10;;;;;;;;;;;22.80;99.90;;;;;;5066843;28;19971;-67
2021/07/12 09:00:47;;;;;;;;;;;22.80;99.90;;;;;;5068507;28;19956;-67
2021/07/12 09:03:37;;;;;;;;;;;22.80;99.90;;;;;;5067637;28;20324;-68
2021/07/12 09:06:11;;;;;;;;;;;22.90;99.90;;;;;;5060699;28;20026;-68
2021/07/12 09:08:51;;;;;;;;;;;23.00;99.90;;;;;;5068278;28;20066;-68
2021/07/12 09:11:52;;;;;;;;;;;23.00;99.90;;;;;;5065093;28;19917;-68
2021/07/12 09:14:18;;;;;;;;;;;23.00;99.90;;;;;;5065843;28;19964;-68
2021/07/12 09:16:54;;;;;;;;;;;23.10;99.90;;;;;;5065810;28;20374;-68
2021/07/12 09:19:25;;;;;;;;;;;23.20;99.90;;;;;;5066556;28;20463;-69
2021/07/12 09:21:55;;;;;;;;;;;23.30;99.90;;;;;;5063458;28;19968;-68
2021/07/12 09:24:23;;;;;;;;;;;23.30;99.90;;;;;;5062512;28;20011;-68
2021/07/12 09:27:04;;;;;;;;;;;23.30;99.90;;;;;;5064646;28;20287;-68
2021/07/12 09:29:35;;;;;;;;;;;23.40;99.90;;;;;;5063453;28;19963;-68
2021/07/12 09:32:03;;;;;;;;;;;23.40;99.90;;;;;;5066255;28;19932;-67
2021/07/12 09:34:30;;;;;;;;;;;23.40;99.90;;;;;;5079382;28;20273;-68
2021/07/12 09:36:56;;;;;;;;;;;23.40;99.90;;;;;;5064776;28;19933;-68
2021/07/12 09:39:26;;;;;;;;;;;23.40;99.90;;;;;;5063384;28;20380;-68
2021/07/12 09:41:53;;;;;;;;;;;23.40;99.90;;;;;;5066763;28;20279;-68
2021/07/12 09:44:21;;;;;;;;;;;23.50;99.90;;;;;;5065209;28;19932;-68
2021/07/12 09:46:49;;;;;;;;;;;23.50;99.90;;;;;;5063018;28;20348;-66
2021/07/12 09:49:23;;;;;;;;;;;23.50;99.90;;;;;;5063545;28;20513;-66
2021/07/12 09:51:54;;;;;;;;;;;23.60;99.90;;;;;;5063980;28;20026;-65
2021/07/12 09:54:22;;;;;;;;;;;23.60;99.90;;;;;;5072384;28;19929;-67
2021/07/12 09:56:50;;;;;;;;;;;23.70;99.90;;;;;;5060860;28;19976;-66
2021/07/12 09:59:18;;;;;;;;;;;23.80;99.90;;;;;;5064744;28;19979;-66
2021/07/12 10:01:49;;;;;;;;;;;23.70;99.90;;;;;;5063912;28;19925;-67
2021/07/12 10:04:16;;;;;;;;;;;23.80;99.90;;;;;;5062394;28;20062;-66
2021/07/12 10:06:43;;;;;;;;;;;23.70;99.90;;;;;;5062027;28;20202;-67
2021/07/12 10:09:10;;;;;;;;;;;23.70;99.90;;;;;;5062823;28;19933;-66
2021/07/12 10:11:37;;;;;;;;;;;23.80;99.90;;;;;;5074394;28;20038;-66
2021/07/12 10:14:04;;;;;;;;;;;23.80;99.90;;;;;;5064594;28;19976;-66
2021/07/12 10:16:31;;;;;;;;;;;23.80;99.90;;;;;;5062939;28;19949;-66
2021/07/12 10:18:58;;;;;;;;;;;23.90;99.90;;;;;;5061982;28;19931;-66
2021/07/12 10:21:33;;;;;;;;;;;23.90;99.90;;;;;;5070223;28;20009;-66
2021/07/12 10:23:59;;;;;;;;;;;24.00;99.90;;;;;;5049421;28;19929;-66
2021/07/12 10:26:43;;;;;;;;;;;24.00;99.90;;;;;;5048217;28;19961;-66
2021/07/12 10:29:11;;;;;;;;;;;24.00;99.90;;;;;;5050692;28;20912;-66
2021/07/12 10:31:52;;;;;;;;;;;24.00;99.90;;;;;;5047730;28;20000;-66
2021/07/12 10:34:25;;;;;;;;;;;24.20;99.90;;;;;;5052089;28;20063;-66
2021/07/12 10:36:59;;;;;;;;;;;24.10;99.90;;;;;;5048458;28;19924;-66
2021/07/12 10:39:45;;;;;;;;;;;24.20;99.90;;;;;;5079984;28;19995;-66
2021/07/12 10:42:32;;;;;;;;;;;24.20;99.90;;;;;;5048797;28;19929;-66
2021/07/12 10:45:17;;;;;;;;;;;24.20;99.90;;;;;;5048491;28;20389;-66
2021/07/12 10:47:51;;;;;;;;;;;24.20;99.90;;;;;;5045243;28;20012;-66
2021/07/12 10:50:37;;;;;;;;;;;24.30;99.90;;;;;;5049504;28;19968;-66
2021/07/12 10:53:04;;;;;;;;;;;24.30;99.90;;;;;;5047453;28;19928;-66
2021/07/12 10:55:34;;;;;;;;;;;24.40;99.90;;;;;;5049359;28;19971;-66
2021/07/12 10:58:19;;;;;;;;;;;24.40;99.90;;;;;;5049444;28;19933;-67
2021/07/12 11:00:47;;;;;;;;;;;24.50;99.90;;;;;;5053131;28;19928;-67
2021/07/12 11:03:52;;;;;;;;;;;24.60;99.90;;;;;;5051321;28;20047;-67
2021/07/12 11:06:27;;;;;;;;;;;24.60;99.90;;;;;;5045771;28;19924;-67
2021/07/12 11:08:55;;;;;;;;;;;24.60;99.90;;;;;;5046426;28;20352;-67
2021/07/12 11:11:22;;;;;;;;;;;24.60;99.90;;;;;;5046462;28;20015;-66
2021/07/12 11:13:52;;;;;;;;;;;24.70;99.90;;;;;;5049203;28;19983;-67
2021/07/12 11:16:20;;;;;;;;;;;24.70;99.90;;;;;;5049163;28;19928;-66
2021/07/12 11:18:48;;;;;;;;;;;24.70;99.90;;;;;;5050001;28;19938;-67
2021/07/12 11:21:15;;;;;;;;;;;24.70;99.90;;;;;;5047865;28;19964;-67
2021/07/12 11:24:05;;;;;;;;;;;24.70;99.90;;;;;;5048713;28;20086;-67
2021/07/12 11:26:32;;;;;;;;;;;24.70;99.90;;;;;;5048810;28;20039;-67
2021/07/12 11:29:00;;;;;;;;;;;24.70;99.90;;;;;;5047362;28;19925;-67
2021/07/12 11:31:42;;;;;;;;;;;24.80;99.90;;;;;;5048878;28;19959;-67
2021/07/12 11:34:11;;;;;;;;;;;24.80;99.90;;;;;;5048785;28;20015;-67
2021/07/12 11:36:38;;;;;;;;;;;24.90;99.90;;;;;;5046796;28;20384;-67
2021/07/12 11:39:05;;;;;;;;;;;25.00;99.90;;;;;;5077423;28;20380;-67
2021/07/12 11:41:32;;;;;;;;;;;25.00;99.90;;;;;;5049387;28;20350;-66
2021/07/12 11:44:06;;;;;;;;;;;24.90;99.90;;;;;;5050172;28;19997;-67
2021/07/12 11:46:33;;;;;;;;;;;24.90;99.90;;;;;;5045402;28;19968;-67
2021/07/12 11:49:05;;;;;;;;;;;24.90;99.90;;;;;;5049847;28;20354;-67
2021/07/12 11:51:32;;;;;;;;;;;24.80;99.90;;;;;;5048102;28;20383;-67
2021/07/12 11:53:59;;;;;;;;;;;24.80;99.90;;;;;;5049022;28;20012;-67
2021/07/12 11:56:25;;;;;;;;;;;24.80;99.90;;;;;;5047886;28;19964;-67
2021/07/12 11:58:56;;;;;;;;;;;24.70;99.90;;;;;;5049023;28;19979;-67
2021/07/12 12:01:23;;;;;;;;;;;24.80;99.90;;;;;;5048911;28;20434;-66
2021/07/12 12:04:00;;;;;;;;;;;24.80;99.90;;;;;;5048163;28;19935;-67
2021/07/12 12:06:27;;;;;;;;;;;24.80;99.90;;;;;;5058208;28;20339;-67
2021/07/12 12:09:00;;;;;;;;;;;24.70;99.90;;;;;;5047165;28;19924;-66
2021/07/12 12:11:27;;;;;;;;;;;24.70;99.90;;;;;;5045094;28;19948;-66
2021/07/12 12:13:55;;;;;;;;;;;24.70;99.90;;;;;;5048577;28;19968;-66
2021/07/12 12:16:25;;;;;;;;;;;24.60;99.90;;;;;;5046130;28;20539;-66
2021/07/12 12:18:54;;;;;;;;;;;24.60;99.90;;;;;;5048194;28;20038;-67
2021/07/12 12:21:22;;;;;;;;;;;24.60;99.90;;;;;;5046743;28;19993;-67
2021/07/12 12:23:49;;;;;;;;;;;24.60;99.90;;;;;;5050412;28;20401;-66
2021/07/12 12:26:22;;;;;;;;;;;24.50;99.90;;;;;;5045387;28;19993;-68
2021/07/12 12:28:51;;;;;;;;;;;24.50;99.90;;;;;;5046971;28;19936;-66
2021/07/12 12:31:20;;;;;;;;;;;24.50;99.90;;;;;;5045967;28;20015;-67
2021/07/12 12:33:56;;;;;;;;;;;24.50;99.90;;;;;;5049356;28;20484;-67
2021/07/12 12:36:24;;;;;;;;;;;24.50;99.90;;;;;;5046409;28;20047;-67
2021/07/12 12:38:57;;;;;;;;;;;24.40;99.90;;;;;;5045420;28;19994;-67
2021/07/12 12:41:25;;;;;;;;;;;24.40;99.90;;;;;;5044634;28;20443;-67
2021/07/12 12:44:05;;;;;;;;;;;24.40;99.90;;;;;;5047409;28;19959;-67
2021/07/12 12:46:48;;;;;;;;;;;24.30;99.90;;;;;;5046761;28;20035;-67
2021/07/12 12:49:28;;;;;;;;;;;24.30;99.90;;;;;;5048671;28;20023;-68
2021/07/12 12:51:56;;;;;;;;;;;24.30;99.90;;;;;;5047976;28;20032;-67
2021/07/12 12:54:33;;;;;;;;;;;24.20;99.90;;;;;;5048293;28;19968;-68
2021/07/12 12:57:01;;;;;;;;;;;24.20;99.90;;;;;;5044141;28;19929;-67
2021/07/12 12:59:35;;;;;;;;;;;24.20;99.90;;;;;;5046059;28;19956;-67
2021/07/12 13:02:05;;;;;;;;;;;24.20;99.90;;;;;;5047388;28;19925;-67
2021/07/12 13:04:52;;;;;;;;;;;24.20;99.90;;;;;;5046479;28;20033;-67
2021/07/12 13:07:19;;;;;;;;;;;24.20;99.90;;;;;;5046392;28;20029;-67
2021/07/12 13:09:59;;;;;;;;;;;24.20;99.90;;;;;;5050116;28;19956;-67
2021/07/12 13:12:26;;;;;;;;;;;24.20;99.90;;;;;;5065917;28;19975;-66
2021/07/12 13:14:54;;;;;;;;;;;24.20;99.90;;;;;;5070262;28;20397;-67
2021/07/12 13:17:23;;;;;;;;;;;24.20;99.90;;;;;;5063665;28;20021;-67
2021/07/12 13:19:54;;;;;;;;;;;24.20;99.90;;;;;;5068150;28;19942;-67
2021/07/12 13:22:30;;;;;;;;;;;24.10;99.90;;;;;;5068384;28;19968;-67
2021/07/12 13:24:59;;;;;;;;;;;24.20;99.90;;;;;;5067684;28;20326;-67
2021/07/12 13:27:33;;;;;;;;;;;24.20;99.90;;;;;;5064416;28;19939;-67
2021/07/12 13:30:00;;;;;;;;;;;24.20;99.90;;;;;;5050632;28;19924;-67
2021/07/12 13:32:27;;;;;;;;;;;24.20;99.90;;;;;;5059291;28;20311;-66
2021/07/12 13:34:55;;;;;;;;;;;24.20;99.90;;;;;;5067854;28;19936;-67
2021/07/12 13:37:23;;;;;;;;;;;24.20;99.90;;;;;;5064742;28;19970;-66
2021/07/12 13:39:49;;;;;;;;;;;24.20;99.90;;;;;;5062999;28;19924;-66
2021/07/12 13:42:16;;;;;;;;;;;24.20;99.90;;;;;;5065919;28;19978;-67
2021/07/12 13:44:43;;;;;;;;;;;24.20;99.90;;;;;;5063260;28;19932;-67
2021/07/12 13:47:11;;;;;;;;;;;24.30;99.90;;;;;;5065221;28;19967;-67
2021/07/12 13:49:38;;;;;;;;;;;24.30;99.90;;;;;;5066352;28;19933;-66
2021/07/12 13:52:05;;;;;;;;;;;24.40;99.90;;;;;;5064815;28;20032;-67
2021/07/12 13:54:32;;;;;;;;;;;24.40;99.90;;;;;;5068870;28;19968;-66
2021/07/12 13:57:00;;;;;;;;;;;24.40;99.90;;;;;;5069080;28;20048;-66
2021/07/12 13:59:27;;;;;;;;;;;24.50;99.90;;;;;;5069363;28;19978;-67
2021/07/12 14:01:54;;;;;;;;;;;24.50;99.90;;;;;;5062598;28;19967;-67
2021/07/12 14:04:21;;;;;;;;;;;24.50;99.90;;;;;;5068811;28;19970;-66
2021/07/12 14:06:48;;;;;;;;;;;24.50;99.90;;;;;;5081987;28;20007;-66
2021/07/12 14:09:16;;;;;;;;;;;24.50;99.90;;;;;;5072342;28;19928;-66
2021/07/12 14:11:43;;;;;;;;;;;24.60;99.90;;;;;;5068454;28;19978;-66
2021/07/12 14:14:09;;;;;;;;;;;24.60;99.90;;;;;;5073074;28;19971;-67
2021/07/12 14:16:36;;;;;;;;;;;24.60;99.90;;;;;;5068776;28;20049;-66
2021/07/12 14:19:02;;;;;;;;;;;24.70;99.90;;;;;;5068080;28;19976;-66
2021/07/12 14:21:29;;;;;;;;;;;24.70;99.90;;;;;;5068922;28;19943;-66
2021/07/12 14:23:56;;;;;;;;;;;24.70;99.90;;;;;;5052504;28;19956;-66
2021/07/12 14:26:24;;;;;;;;;;;24.70;99.90;;;;;;5063856;28;20332;-67
2021/07/12 14:28:53;;;;;;;;;;;24.70;99.90;;;;;;5069233;28;20376;-67